Time;durP1;ratioP1;P1;durP2;ratioP2;P2;SDS_P1;SDS_P2;PMS_P1;PMS_P2;Temp;Humidity;BMP_temperature;BMP_pressure;BME280_temperature;BME280_humidity;BME280_pressure;Samples;Min_cycle;Max_cycle;Signal;HPM_P1;HPM_P2
2023/05/22 00:00:34;;;;;;;22.57;20.57;;;21.90;90.30;;;;;;5054220;28;20453;-57
2023/05/22 00:03:02;;;;;;;24.10;21.53;;;21.90;90.50;;;;;;5054233;28;20438;-57
2023/05/22 00:05:29;;;;;;;23.13;21.17;;;21.80;91.00;;;;;;5054056;28;20835;-57
2023/05/22 00:07:56;;;;;;;21.97;19.97;;;21.70;90.70;;;;;;5053934;28;20454;-57
2023/05/22 00:10:23;;;;;;;22.83;20.73;;;21.60;90.80;;;;;;5053747;28;20927;-57
2023/05/22 00:12:49;;;;;;;22.87;20.53;;;21.60;91.10;;;;;;5053966;28;20456;-57
2023/05/22 00:15:16;;;;;;;24.67;22.57;;;21.50;91.20;;;;;;5053844;28;20466;-57
2023/05/22 00:17:44;;;;;;;24.50;20.90;;;21.40;91.40;;;;;;5053774;28;20446;-57
2023/05/22 00:20:12;;;;;;;22.90;20.80;;;21.40;91.50;;;;;;5053845;28;20552;-57
2023/05/22 00:22:39;;;;;;;22.47;20.57;;;21.30;91.90;;;;;;5053493;28;20931;-57
2023/05/22 00:25:07;;;;;;;23.63;21.40;;;21.30;92.10;;;;;;5053422;28;21006;-57
2023/05/22 00:27:34;;;;;;;23.47;21.03;;;21.30;92.20;;;;;;5053758;28;20446;-57
2023/05/22 00:30:01;;;;;;;24.63;22.33;;;21.30;92.40;;;;;;5053518;28;20449;-57
2023/05/22 00:32:28;;;;;;;24.40;22.10;;;21.20;92.40;;;;;;5053658;28;20507;-57
2023/05/22 00:34:56;;;;;;;22.80;20.90;;;21.10;92.60;;;;;;5053552;28;20473;-57
2023/05/22 00:37:24;;;;;;;25.43;22.67;;;21.10;92.80;;;;;;5053572;28;20450;-57
2023/05/22 00:39:51;;;;;;;24.17;22.07;;;21.10;93.00;;;;;;5053417;28;20535;-57
2023/05/22 00:42:18;;;;;;;22.53;20.43;;;21.00;93.20;;;;;;5053503;28;20449;-57
2023/05/22 00:44:45;;;;;;;22.63;20.53;;;20.90;93.60;;;;;;5053448;28;20477;-57
2023/05/22 00:47:11;;;;;;;23.10;20.97;;;20.90;93.40;;;;;;5053419;28;20449;-57
2023/05/22 00:49:38;;;;;;;21.83;19.83;;;20.90;93.30;;;;;;5053682;28;20442;-57
2023/05/22 00:52:07;;;;;;;23.07;21.07;;;21.00;93.30;;;;;;5053080;28;20935;-56
2023/05/22 00:54:34;;;;;;;23.30;21.20;;;20.90;93.40;;;;;;5053270;28;20453;-57
2023/05/22 00:57:01;;;;;;;20.53;18.73;;;20.90;93.50;;;;;;5053302;28;20450;-57
2023/05/22 00:59:29;;;;;;;21.00;19.00;;;20.90;93.40;;;;;;5053218;28;20488;-57
2023/05/22 01:01:56;;;;;;;20.13;18.23;;;20.90;93.50;;;;;;5052888;28;20864;-57
2023/05/22 01:04:24;;;;;;;21.40;19.50;;;20.90;93.60;;;;;;5052787;28;20484;-56
2023/05/22 01:06:51;;;;;;;21.93;19.83;;;20.90;93.60;;;;;;5053087;28;20465;-57
2023/05/22 01:09:19;;;;;;;21.73;19.70;;;20.90;93.50;;;;;;5052893;28;20457;-57
2023/05/22 01:11:55;;;;;;;22.07;20.03;;;20.90;93.30;;;;;;5052837;28;20935;-57
2023/05/22 01:14:29;;;;;;;22.27;20.27;;;20.90;93.40;;;;;;5053742;28;20441;-57
2023/05/22 01:17:07;;;;;;;21.30;19.40;;;20.80;93.50;;;;;;5053152;28;20434;-57
2023/05/22 01:19:52;;;;;;;21.47;19.40;;;20.80;93.60;;;;;;5052695;28;20817;-57
2023/05/22 01:22:31;;;;;;;21.33;19.50;;;20.70;93.70;;;;;;5052712;28;20437;-57
2023/05/22 01:25:20;;;;;;;21.57;19.30;;;20.70;93.60;;;;;;5053066;28;20465;-57
2023/05/22 01:28:02;;;;;;;20.83;19.07;;;20.70;93.60;;;;;;5053149;28;20434;-57
2023/05/22 01:30:54;;;;;;;22.17;20.20;;;20.70;93.70;;;;;;5053190;28;20474;-57
2023/05/22 01:33:25;;;;;;;21.50;19.43;;;20.70;93.50;;;;;;5049602;28;20457;-57
2023/05/22 01:35:54;;;;;;;20.90;18.83;;;20.60;93.60;;;;;;5053144;28;20501;-57
2023/05/22 01:38:21;;;;;;;20.40;18.47;;;20.60;93.50;;;;;;5052863;28;20489;-57
2023/05/22 01:40:48;;;;;;;21.97;19.93;;;20.50;93.60;;;;;;5052995;28;20456;-57
2023/05/22 01:43:15;;;;;;;19.80;17.80;;;20.50;93.80;;;;;;5052907;28;20441;-56
2023/05/22 01:45:42;;;;;;;20.80;18.93;;;20.40;93.80;;;;;;5052954;28;20563;-57
2023/05/22 01:48:08;;;;;;;20.10;17.17;;;20.40;93.70;;;;;;5052854;28;20449;-57
2023/05/22 01:50:36;;;;;;;20.03;18.30;;;20.40;93.80;;;;;;5052824;28;20449;-56
2023/05/22 01:53:15;;;;;;;19.80;17.73;;;20.40;93.90;;;;;;5052886;28;20453;-57
2023/05/22 01:55:49;;;;;;;18.77;17.13;;;20.30;93.90;;;;;;5052819;28;20560;-57
2023/05/22 01:58:24;;;;;;;19.20;17.40;;;20.40;93.80;;;;;;5052818;28;20854;-57
2023/05/22 02:00:53;;;;;;;19.47;17.70;;;20.30;93.80;;;;;;5052821;28;20445;-57
2023/05/22 02:03:25;;;;;;;19.03;17.10;;;20.30;93.70;;;;;;5063605;28;20476;-57
2023/05/22 02:05:55;;;;;;;18.37;16.63;;;20.30;93.70;;;;;;5066088;28;20484;-56
2023/05/22 02:08:23;;;;;;;18.80;17.10;;;20.30;93.70;;;;;;5055281;28;20453;-57
2023/05/22 02:10:52;;;;;;;20.40;17.40;;;20.30;93.80;;;;;;5052402;28;20876;-57
2023/05/22 02:13:19;;;;;;;18.53;17.00;;;20.30;93.70;;;;;;5052761;28;20499;-57
2023/05/22 02:15:47;;;;;;;16.40;15.00;;;20.20;93.70;;;;;;5052667;28;20474;-56
2023/05/22 02:18:15;;;;;;;16.23;14.83;;;20.20;93.70;;;;;;5055083;28;20452;-57
2023/05/22 02:20:41;;;;;;;16.17;14.47;;;20.20;93.60;;;;;;5056247;28;20450;-57
2023/05/22 02:23:09;;;;;;;15.57;14.20;;;20.20;93.70;;;;;;5056126;28;20460;-57
2023/05/22 02:25:36;;;;;;;15.70;14.30;;;20.10;93.70;;;;;;5055951;28;20484;-57
2023/05/22 02:28:03;;;;;;;16.93;15.33;;;20.10;93.50;;;;;;5056053;28;20446;-57
2023/05/22 02:30:29;;;;;;;15.73;14.33;;;20.00;93.50;;;;;;5056022;28;20519;-57
2023/05/22 02:32:57;;;;;;;16.10;14.50;;;20.00;93.50;;;;;;5055953;28;20457;-57
2023/05/22 02:35:23;;;;;;;14.97;13.57;;;19.90;93.40;;;;;;5055928;28;20508;-57
2023/05/22 02:37:50;;;;;;;16.57;15.10;;;19.90;93.40;;;;;;5055570;28;20800;-57
2023/05/22 02:40:18;;;;;;;14.43;13.23;;;19.90;93.50;;;;;;5055838;28;20508;-57
2023/05/22 02:42:45;;;;;;;14.97;13.57;;;19.90;93.50;;;;;;5055690;28;20450;-57
2023/05/22 02:45:12;;;;;;;14.73;13.33;;;19.90;93.40;;;;;;5055639;28;20466;-57
2023/05/22 02:47:38;;;;;;;15.77;14.37;;;19.80;93.40;;;;;;5055681;28;20796;-57
2023/05/22 02:50:06;;;;;;;14.87;13.47;;;19.80;93.50;;;;;;5055595;28;20493;-57
2023/05/22 02:52:33;;;;;;;14.37;13.07;;;19.70;93.70;;;;;;5055548;28;20826;-57
2023/05/22 02:55:00;;;;;;;14.83;13.43;;;19.70;93.80;;;;;;5055256;28;20980;-57
2023/05/22 02:57:28;;;;;;;14.70;13.20;;;19.60;94.00;;;;;;5055412;28;20457;-57
2023/05/22 02:59:56;;;;;;;14.87;12.80;;;19.60;94.00;;;;;;5055177;28;20995;-57
2023/05/22 03:02:25;;;;;;;16.03;14.03;;;19.60;94.10;;;;;;5055315;28;20450;-57
2023/05/22 03:04:52;;;;;;;16.70;13.67;;;19.60;94.20;;;;;;5055337;28;20507;-56
2023/05/22 03:07:20;;;;;;;15.30;13.90;;;19.40;94.20;;;;;;5055279;28;20453;-57
2023/05/22 03:09:46;;;;;;;15.33;14.03;;;19.40;94.20;;;;;;5055460;28;20462;-57
2023/05/22 03:12:13;;;;;;;14.70;13.30;;;19.40;94.20;;;;;;5055146;28;20445;-57
2023/05/22 03:14:41;;;;;;;15.67;14.30;;;19.40;94.20;;;;;;5055137;28;20444;-57
2023/05/22 03:17:08;;;;;;;15.33;13.97;;;19.40;94.20;;;;;;5055184;28;20840;-57
2023/05/22 03:19:34;;;;;;;16.60;14.27;;;19.30;94.10;;;;;;5055022;28;20852;-57
2023/05/22 03:22:01;;;;;;;19.43;15.13;;;19.30;94.40;;;;;;5054804;28;20445;-57
2023/05/22 03:24:28;;;;;;;15.63;14.13;;;19.30;94.60;;;;;;5055728;28;20450;-56
2023/05/22 03:26:55;;;;;;;15.67;14.23;;;19.20;94.80;;;;;;5055110;28;20457;-57
2023/05/22 03:29:21;;;;;;;17.97;16.17;;;19.20;94.90;;;;;;5053743;28;20446;-57
2023/05/22 03:31:49;;;;;;;19.13;17.33;;;19.20;94.80;;;;;;5054792;28;20544;-57
2023/05/22 03:34:16;;;;;;;20.10;18.27;;;19.10;94.90;;;;;;5054982;28;20449;-57
2023/05/22 03:36:43;;;;;;;19.13;17.30;;;19.10;95.10;;;;;;5054764;28;20553;-57
2023/05/22 03:39:10;;;;;;;18.30;16.60;;;19.00;95.30;;;;;;5054725;28;20488;-57
2023/05/22 03:41:37;;;;;;;19.87;18.07;;;18.90;95.50;;;;;;5054722;28;20442;-57
2023/05/22 03:44:04;;;;;;;21.73;19.40;;;18.90;95.70;;;;;;5054679;28;20453;-57
2023/05/22 03:46:31;;;;;;;20.67;18.67;;;18.90;95.70;;;;;;5054642;28;20497;-56
2023/05/22 03:48:59;;;;;;;20.33;18.33;;;18.80;95.70;;;;;;5054566;28;20445;-57
2023/05/22 03:51:25;;;;;;;22.60;20.30;;;18.80;95.70;;;;;;5054453;28;20453;-57
2023/05/22 03:53:52;;;;;;;23.60;21.40;;;18.70;95.90;;;;;;5054719;28;20472;-57
2023/05/22 03:56:18;;;;;;;25.17;22.77;;;18.70;96.20;;;;;;5054381;28;20481;-57
2023/05/22 03:58:45;;;;;;;26.27;23.30;;;18.60;96.30;;;;;;5054461;28;20438;-57
2023/05/22 04:01:12;;;;;;;27.60;24.80;;;18.60;96.40;;;;;;5054333;28;20449;-57
2023/05/22 04:03:39;;;;;;;27.00;24.50;;;18.60;96.60;;;;;;5054360;28;20495;-57
2023/05/22 04:06:07;;;;;;;28.70;25.93;;;18.50;96.70;;;;;;5055044;28;20465;-57
2023/05/22 04:08:34;;;;;;;28.87;25.97;;;18.50;96.90;;;;;;5056751;28;20453;-57
2023/05/22 04:11:01;;;;;;;32.03;28.90;;;18.50;97.20;;;;;;5056445;28;20448;-57
2023/05/22 04:13:30;;;;;;;31.50;28.30;;;18.50;97.30;;;;;;5053912;28;20460;-57
2023/05/22 04:15:57;;;;;;;32.57;29.27;;;18.50;97.40;;;;;;5053857;28;20497;-57
2023/05/22 04:18:24;;;;;;;33.00;29.70;;;18.50;97.50;;;;;;5053931;28;20481;-57
2023/05/22 04:20:50;;;;;;;30.23;27.13;;;18.50;97.60;;;;;;5053711;28;21044;-56
2023/05/22 04:23:18;;;;;;;35.40;31.77;;;18.40;98.00;;;;;;5053859;28;20473;-57
2023/05/22 04:25:46;;;;;;;35.07;31.53;;;18.30;98.30;;;;;;5053708;28;20469;-57
2023/05/22 04:28:16;;;;;;;35.47;31.83;;;18.30;98.50;;;;;;5053649;28;20504;-57
2023/05/22 04:30:43;;;;;;;36.87;31.73;;;18.20;98.80;;;;;;5053704;28;20441;-57
2023/05/22 04:33:11;;;;;;;35.37;31.57;;;18.20;99.10;;;;;;5053906;28;20497;-57
2023/05/22 04:35:39;;;;;;;36.37;32.20;;;18.10;99.40;;;;;;5053406;28;20987;-57
2023/05/22 04:38:06;;;;;;;35.77;32.07;;;18.10;99.70;;;;;;5053733;28;20503;-57
2023/05/22 04:40:36;;;;;;;36.80;31.20;;;18.10;99.80;;;;;;5053000;28;20855;-57
2023/05/22 04:43:03;;;;;;;36.33;31.33;;;18.20;99.90;;;;;;5053891;28;20532;-56
2023/05/22 04:45:30;;;;;;;40.03;33.60;;;18.20;99.90;;;;;;5053592;28;20519;-57
2023/05/22 04:47:56;;;;;;;39.70;33.40;;;18.30;99.90;;;;;;5053609;28;20446;-57
2023/05/22 04:50:23;;;;;;;41.63;32.20;;;18.30;99.90;;;;;;5053164;28;20441;-56
2023/05/22 04:52:50;;;;;;;39.07;35.17;;;18.40;99.90;;;;;;5053451;28;20484;-57
2023/05/22 04:55:17;;;;;;;37.27;33.47;;;18.40;99.90;;;;;;5053398;28;20480;-57
2023/05/22 04:57:46;;;;;;;38.50;34.27;;;18.30;99.90;;;;;;5053355;28;20834;-57
2023/05/22 05:00:15;;;;;;;40.10;34.43;;;18.40;99.90;;;;;;5053355;28;20851;-57
2023/05/22 05:02:42;;;;;;;48.47;36.30;;;18.40;99.90;;;;;;5053401;28;20472;-57
2023/05/22 05:05:09;;;;;;;45.10;34.20;;;18.40;99.90;;;;;;5052847;28;20983;-56
2023/05/22 05:07:38;;;;;;;43.83;36.20;;;18.40;99.90;;;;;;5053171;28;20503;-57
2023/05/22 05:10:05;;;;;;;43.40;36.33;;;18.30;99.90;;;;;;5052849;28;20854;-57
2023/05/22 05:12:32;;;;;;;46.47;36.50;;;18.30;99.90;;;;;;5053110;28;20485;-57
2023/05/22 05:15:00;;;;;;;40.17;35.27;;;18.40;99.90;;;;;;5053090;28;20481;-57
2023/05/22 05:17:27;;;;;;;43.37;35.27;;;18.40;99.90;;;;;;5053251;28;20476;-57
2023/05/22 05:19:54;;;;;;;53.17;36.10;;;18.40;99.90;;;;;;5053151;28;20489;-56
2023/05/22 05:22:20;;;;;;;49.23;36.50;;;18.40;99.90;;;;;;5052823;28;20943;-57
2023/05/22 05:24:47;;;;;;;47.97;36.47;;;18.30;99.90;;;;;;5052981;28;20466;-56
2023/05/22 05:27:14;;;;;;;46.87;35.77;;;18.30;99.90;;;;;;5053240;28;20523;-56
2023/05/22 05:29:41;;;;;;;47.57;35.77;;;18.20;99.90;;;;;;5053197;28;20448;-56
2023/05/22 05:32:10;;;;;;;40.43;35.27;;;18.20;99.90;;;;;;5052775;28;20828;-56
2023/05/22 05:34:36;;;;;;;53.67;36.90;;;18.20;99.90;;;;;;5052939;28;20481;-56
2023/05/22 05:37:04;;;;;;;47.40;35.77;;;18.10;99.90;;;;;;5052955;28;20454;-56
2023/05/22 05:39:31;;;;;;;48.37;36.67;;;18.00;99.90;;;;;;5052834;28;20473;-57
2023/05/22 05:41:58;;;;;;;43.23;34.23;;;18.00;99.90;;;;;;5053168;28;20445;-56
2023/05/22 05:44:25;;;;;;;42.40;34.07;;;18.00;99.90;;;;;;5052831;28;20454;-56
2023/05/22 05:46:52;;;;;;;43.67;35.70;;;17.90;99.90;;;;;;5053647;28;20511;-56
2023/05/22 05:49:20;;;;;;;45.27;34.60;;;18.00;99.90;;;;;;5053124;28;20544;-56
2023/05/22 05:51:47;;;;;;;48.50;35.87;;;18.00;99.90;;;;;;5053326;28;20449;-57
2023/05/22 05:54:13;;;;;;;44.90;36.00;;;18.00;99.90;;;;;;5057646;28;20638;-57
2023/05/22 05:56:40;;;;;;;45.57;36.10;;;18.00;99.90;;;;;;5059528;28;20480;-57
2023/05/22 05:59:07;;;;;;;50.37;35.83;;;18.10;99.90;;;;;;5069552;28;20452;-56
2023/05/22 06:01:34;;;;;;;45.60;35.40;;;18.10;99.90;;;;;;5070063;28;20485;-56
2023/05/22 06:04:02;;;;;;;43.60;34.80;;;18.10;99.90;;;;;;5056801;28;20449;-57
2023/05/22 06:06:34;;;;;;;47.80;36.63;;;18.10;99.90;;;;;;5056451;28;20480;-57
2023/05/22 06:09:01;;;;;;;59.20;36.70;;;18.20;99.90;;;;;;5056134;28;20506;-57
2023/05/22 06:11:28;;;;;;;45.73;34.73;;;18.20;99.90;;;;;;5056729;28;20445;-56
2023/05/22 06:13:55;;;;;;;40.90;33.87;;;18.30;99.90;;;;;;5055852;28;20453;-56
2023/05/22 06:16:22;;;;;;;38.47;33.47;;;18.20;99.90;;;;;;5056163;28;20512;-56
2023/05/22 06:18:51;;;;;;;43.70;34.47;;;18.20;99.90;;;;;;5056166;28;20537;-56
2023/05/22 06:21:19;;;;;;;41.90;33.90;;;18.20;99.90;;;;;;5055885;28;20481;-56
2023/05/22 06:23:48;;;;;;;45.00;34.70;;;18.30;99.90;;;;;;5055978;28;20459;-56
2023/05/22 06:26:15;;;;;;;40.33;33.70;;;18.40;99.90;;;;;;5055917;28;20469;-57
2023/05/22 06:28:42;;;;;;;41.00;34.37;;;18.40;99.90;;;;;;5056111;28;20461;-57
2023/05/22 06:31:09;;;;;;;41.10;33.70;;;18.40;99.90;;;;;;5055922;28;20453;-57
2023/05/22 06:33:36;;;;;;;42.67;33.37;;;18.40;99.90;;;;;;5056005;28;20445;-57
2023/05/22 06:36:03;;;;;;;44.57;33.87;;;18.40;99.90;;;;;;5055490;28;20842;-57
2023/05/22 06:38:31;;;;;;;42.17;34.00;;;18.30;99.90;;;;;;5055771;28;20481;-57
2023/05/22 06:40:59;;;;;;;40.50;33.20;;;18.30;99.90;;;;;;5055314;28;20894;-57
2023/05/22 06:43:25;;;;;;;41.67;34.23;;;18.30;99.90;;;;;;5056703;28;20449;-57
2023/05/22 06:45:52;;;;;;;38.30;33.20;;;18.40;99.90;;;;;;5055260;28;20469;-57
2023/05/22 06:48:19;;;;;;;39.07;33.97;;;18.40;99.90;;;;;;5055590;28;20445;-57
2023/05/22 06:50:45;;;;;;;38.80;34.10;;;18.50;99.90;;;;;;5055545;28;20438;-57
2023/05/22 06:53:12;;;;;;;39.70;33.37;;;18.60;99.90;;;;;;5056286;28;20458;-57
2023/05/22 06:55:39;;;;;;;35.80;31.97;;;18.70;99.90;;;;;;5055116;28;21002;-57
2023/05/22 06:58:07;;;;;;;39.03;33.40;;;18.80;99.90;;;;;;5056187;28;20453;-57
2023/05/22 07:00:34;;;;;;;43.40;33.37;;;18.70;99.90;;;;;;5055256;28;20473;-57
2023/05/22 07:03:00;;;;;;;36.90;31.77;;;18.70;99.90;;;;;;5054801;28;20540;-57
2023/05/22 07:05:27;;;;;;;35.70;31.87;;;18.80;99.90;;;;;;5055221;28;20507;-56
2023/05/22 07:07:54;;;;;;;37.87;32.20;;;18.90;99.90;;;;;;5054799;28;20909;-57
2023/05/22 07:10:21;;;;;;;39.97;30.63;;;18.80;99.90;;;;;;5055082;28;20922;-57
2023/05/22 07:12:48;;;;;;;36.47;32.20;;;18.90;99.90;;;;;;5055146;28;20448;-57
2023/05/22 07:15:16;;;;;;;36.30;32.27;;;18.90;99.90;;;;;;5054720;28;21027;-56
2023/05/22 07:17:42;;;;;;;36.70;29.53;;;18.90;99.90;;;;;;5055150;28;20457;-57
2023/05/22 07:20:10;;;;;;;40.17;31.67;;;19.00;99.90;;;;;;5054965;28;20480;-57
2023/05/22 07:22:37;;;;;;;37.33;31.60;;;19.10;99.90;;;;;;5055444;28;20460;-57
2023/05/22 07:25:05;;;;;;;37.87;32.13;;;19.10;99.90;;;;;;5054846;28;20676;-57
2023/05/22 07:27:32;;;;;;;36.43;29.40;;;19.20;99.80;;;;;;5055213;28;20453;-57
2023/05/22 07:29:58;;;;;;;33.93;30.17;;;19.20;99.90;;;;;;5054827;28;20453;-57
2023/05/22 07:32:27;;;;;;;35.77;31.90;;;19.30;99.80;;;;;;5054768;28;20522;-57
2023/05/22 07:34:53;;;;;;;35.10;31.00;;;19.30;99.60;;;;;;5054913;28;20466;-57
2023/05/22 07:37:21;;;;;;;34.73;30.07;;;19.40;99.20;;;;;;5054690;28;20468;-57
2023/05/22 07:39:47;;;;;;;34.80;31.10;;;19.30;99.10;;;;;;5055398;28;20453;-57
2023/05/22 07:42:14;;;;;;;35.07;30.30;;;19.40;99.30;;;;;;5054590;28;20449;-56
2023/05/22 07:44:41;;;;;;;38.07;31.03;;;19.40;99.10;;;;;;5054483;28;20817;-57
2023/05/22 07:47:07;;;;;;;38.97;31.80;;;19.50;99.30;;;;;;5054612;28;20457;-57
2023/05/22 07:49:36;;;;;;;35.87;32.03;;;19.60;99.20;;;;;;5054463;28;20437;-57
2023/05/22 07:52:02;;;;;;;34.13;30.60;;;19.70;99.00;;;;;;5054772;28;20445;-57
2023/05/22 07:54:29;;;;;;;33.93;30.10;;;19.70;98.40;;;;;;5054419;28;20450;-57
2023/05/22 07:56:56;;;;;;;37.80;32.67;;;19.60;98.50;;;;;;5054413;28;20445;-57
2023/05/22 07:59:24;;;;;;;34.10;30.47;;;19.60;98.30;;;;;;5054270;28;20449;-57
2023/05/22 08:01:50;;;;;;;38.97;31.30;;;19.60;98.30;;;;;;5054091;28;20903;-57
2023/05/22 08:04:17;;;;;;;37.03;32.03;;;19.60;98.70;;;;;;5054398;28;20459;-57
2023/05/22 08:06:45;;;;;;;35.13;31.30;;;19.50;98.40;;;;;;5054020;28;20557;-57
2023/05/22 08:09:12;;;;;;;39.43;31.57;;;19.60;98.40;;;;;;5053963;28;20519;-57
2023/05/22 08:11:40;;;;;;;40.77;33.53;;;19.60;98.40;;;;;;5053998;28;20450;-56
2023/05/22 08:14:08;;;;;;;37.27;33.20;;;19.50;98.50;;;;;;5054521;28;20456;-57
2023/05/22 08:16:34;;;;;;;47.50;35.40;;;19.50;98.60;;;;;;5053498;28;20469;-57
2023/05/22 08:19:01;;;;;;;44.43;37.07;;;19.50;99.00;;;;;;5053593;28;20935;-57
2023/05/22 08:21:28;;;;;;;40.13;34.00;;;19.60;98.80;;;;;;5053472;28;21006;-57
2023/05/22 08:23:56;;;;;;;38.33;34.17;;;19.60;98.80;;;;;;5054077;28;20450;-57
2023/05/22 08:26:23;;;;;;;44.90;36.80;;;19.60;98.60;;;;;;5053699;28;20465;-57
2023/05/22 08:28:49;;;;;;;39.63;35.33;;;19.60;98.80;;;;;;5053682;28;21015;-57
2023/05/22 08:31:16;;;;;;;38.73;34.43;;;19.70;98.90;;;;;;5053700;28;20477;-56
2023/05/22 08:33:43;;;;;;;42.33;36.17;;;19.80;98.40;;;;;;5053644;28;20456;-57
2023/05/22 08:36:10;;;;;;;43.47;36.90;;;19.90;98.00;;;;;;5053774;28;20466;-57
2023/05/22 08:38:37;;;;;;;45.17;37.70;;;20.00;98.00;;;;;;5053492;28;20935;-57
2023/05/22 08:41:06;;;;;;;44.13;36.33;;;20.10;97.60;;;;;;5053477;28;20503;-56
2023/05/22 08:43:32;;;;;;;41.00;36.60;;;20.10;97.30;;;;;;5053480;28;20460;-57
2023/05/22 08:46:01;;;;;;;42.23;34.60;;;20.10;97.40;;;;;;5053437;28;20465;-57
2023/05/22 08:48:30;;;;;;;46.67;37.13;;;20.10;97.10;;;;;;5054261;28;20446;-57
2023/05/22 08:51:02;;;;;;;42.97;35.50;;;20.00;97.10;;;;;;5053630;28;20473;-56
2023/05/22 08:53:30;;;;;;;43.27;38.03;;;19.90;97.20;;;;;;5053414;28;20422;-56
2023/05/22 08:55:57;;;;;;;45.27;36.10;;;19.80;97.30;;;;;;5053273;28;20499;-57
2023/05/22 08:58:25;;;;;;;47.67;36.67;;;19.70;97.60;;;;;;5053326;28;20456;-57
2023/05/22 09:00:53;;;;;;;49.33;37.37;;;19.80;97.80;;;;;;5053155;28;20477;-57
2023/05/22 09:03:21;;;;;;;47.90;36.77;;;19.80;97.40;;;;;;5053319;28;20449;-57
2023/05/22 09:05:49;;;;;;;41.50;35.00;;;19.80;97.60;;;;;;5053056;28;21002;-57
2023/05/22 09:08:17;;;;;;;43.20;36.07;;;19.70;97.70;;;;;;5052753;28;20978;-57
2023/05/22 09:10:44;;;;;;;43.40;36.60;;;19.80;97.50;;;;;;5053250;28;20437;-57
2023/05/22 09:13:11;;;;;;;45.40;34.33;;;19.90;97.60;;;;;;5052908;28;20970;-57
2023/05/22 09:15:39;;;;;;;48.20;36.77;;;20.00;97.50;;;;;;5053306;28;20473;-57
2023/05/22 09:18:06;;;;;;;50.00;38.47;;;20.00;97.20;;;;;;5053078;28;20536;-57
2023/05/22 09:20:34;;;;;;;51.93;39.53;;;20.10;97.20;;;;;;5053037;28;20477;-57
2023/05/22 09:23:02;;;;;;;53.97;40.57;;;20.20;96.80;;;;;;5053640;28;20476;-57
2023/05/22 09:25:29;;;;;;;45.90;36.97;;;20.10;96.50;;;;;;5053025;28;20486;-57
2023/05/22 09:27:56;;;;;;;51.17;39.37;;;20.10;96.50;;;;;;5057154;28;20503;-57
2023/05/22 09:30:23;;;;;;;47.60;38.13;;;20.20;96.50;;;;;;5057197;28;20491;-57
2023/05/22 09:32:51;;;;;;;48.40;39.67;;;20.00;96.50;;;;;;5057168;28;20450;-57
2023/05/22 09:35:19;;;;;;;45.27;37.80;;;20.20;96.70;;;;;;5056826;28;21056;-57
2023/05/22 09:37:46;;;;;;;48.60;37.80;;;20.30;96.10;;;;;;5057043;28;20503;-57
2023/05/22 09:40:13;;;;;;;41.93;35.60;;;20.40;96.30;;;;;;5057367;28;20445;-57
2023/05/22 09:42:44;;;;;;;45.77;36.20;;;20.40;96.00;;;;;;5056930;28;20534;-57
2023/05/22 09:45:11;;;;;;;42.50;35.20;;;20.40;95.60;;;;;;5056857;28;20471;-57
2023/05/22 09:47:39;;;;;;;47.50;39.53;;;20.60;95.80;;;;;;5056823;28;20442;-57
2023/05/22 09:50:09;;;;;;;49.80;38.57;;;20.50;95.40;;;;;;5056807;28;20450;-57
2023/05/22 09:52:37;;;;;;;48.37;38.30;;;20.50;96.10;;;;;;5056933;28;20478;-57
2023/05/22 09:55:06;;;;;;;46.20;39.13;;;20.50;95.90;;;;;;5056558;28;20476;-56
2023/05/22 09:57:42;;;;;;;49.80;39.70;;;20.40;96.20;;;;;;5056603;28;20453;-57
2023/05/22 10:00:13;;;;;;;50.83;38.03;;;20.60;96.20;;;;;;5056601;28;20429;-56
2023/05/22 10:02:44;;;;;;;45.40;39.80;;;20.50;95.60;;;;;;5056397;28;20843;-57
2023/05/22 10:05:19;;;;;;;45.60;38.17;;;20.60;95.70;;;;;;5060412;28;20558;-57
2023/05/22 10:07:48;;;;;;;46.37;40.30;;;20.60;95.60;;;;;;5070101;28;20433;-56
2023/05/22 10:10:17;;;;;;;49.40;38.80;;;20.60;95.70;;;;;;5067616;28;20466;-57
2023/05/22 10:12:50;;;;;;;50.20;40.23;;;20.60;95.60;;;;;;5056144;28;21006;-56
2023/05/22 10:15:17;;;;;;;49.87;40.50;;;20.60;95.70;;;;;;5056243;28;20461;-57
2023/05/22 10:17:45;;;;;;;50.10;39.40;;;20.70;95.70;;;;;;5056321;28;20441;-57
2023/05/22 10:20:13;;;;;;;49.63;40.90;;;20.60;95.50;;;;;;5056321;28;20449;-57
2023/05/22 10:22:41;;;;;;;49.37;41.30;;;20.70;95.70;;;;;;5056097;28;20480;-57
2023/05/22 10:25:09;;;;;;;51.67;42.13;;;20.70;95.30;;;;;;5055734;28;20991;-57
2023/05/22 10:27:36;;;;;;;50.10;40.40;;;20.80;95.00;;;;;;5056316;28;20446;-57
2023/05/22 10:30:13;;;;;;;50.80;40.60;;;21.00;95.00;;;;;;5056021;28;20453;-56
2023/05/22 10:32:44;;;;;;;55.43;42.60;;;21.10;94.90;;;;;;5055649;28;20908;-56
2023/05/22 10:35:20;;;;;;;50.40;42.70;;;21.30;94.80;;;;;;5055852;28;20477;-56
2023/05/22 10:37:53;;;;;;;53.23;43.20;;;21.50;94.40;;;;;;5054898;28;20962;-56
2023/05/22 10:40:27;;;;;;;45.00;40.13;;;21.60;93.80;;;;;;5055791;28;20881;-56
2023/05/22 10:42:58;;;;;;;47.23;40.50;;;21.70;93.10;;;;;;5055742;28;20469;-57
2023/05/22 10:45:27;;;;;;;47.10;40.37;;;21.90;93.30;;;;;;5055903;28;20470;-56
2023/05/22 10:48:03;;;;;;;49.43;41.03;;;22.30;92.90;;;;;;5055709;28;20450;-57
2023/05/22 10:50:31;;;;;;;49.00;40.00;;;22.50;91.70;;;;;;5055655;28;20429;-57
2023/05/22 10:53:22;;;;;;;46.33;38.40;;;22.60;91.00;;;;;;5055538;28;20445;-57
2023/05/22 10:55:49;;;;;;;47.83;42.67;;;22.70;91.10;;;;;;5055413;28;20472;-57
2023/05/22 10:58:16;;;;;;;46.27;37.60;;;22.70;90.30;;;;;;5055569;28;20468;-57
2023/05/22 11:00:43;;;;;;;46.40;39.70;;;22.90;90.50;;;;;;5055471;28;20452;-57
2023/05/22 11:03:10;;;;;;;42.77;38.13;;;23.40;90.20;;;;;;5055385;28;20489;-57
2023/05/22 11:05:39;;;;;;;45.97;37.87;;;23.90;88.00;;;;;;5055456;28;20474;-57
2023/05/22 11:08:10;;;;;;;41.70;37.20;;;24.10;84.60;;;;;;5055255;28;20478;-57
2023/05/22 11:10:53;;;;;;;43.23;38.53;;;24.30;83.60;;;;;;5055301;28;20429;-57
2023/05/22 11:13:20;;;;;;;46.00;38.83;;;24.40;82.30;;;;;;5055203;28;20438;-57
2023/05/22 11:15:48;;;;;;;38.93;34.83;;;24.60;82.30;;;;;;5055396;28;20496;-57
2023/05/22 11:18:15;;;;;;;47.47;37.00;;;24.80;81.80;;;;;;5055111;28;20445;-57
2023/05/22 11:20:43;;;;;;;45.33;39.07;;;25.10;80.50;;;;;;5055035;28;20802;-57
2023/05/22 11:23:11;;;;;;;46.13;39.67;;;25.00;78.50;;;;;;5055055;28;20846;-57
2023/05/22 11:25:40;;;;;;;40.13;35.77;;;25.10;78.10;;;;;;5054919;28;20523;-57
2023/05/22 11:28:09;;;;;;;52.50;40.00;;;25.30;77.00;;;;;;5054906;28;20455;-57
2023/05/22 11:30:36;;;;;;;41.00;36.70;;;25.70;74.90;;;;;;5054937;28;20453;-57
2023/05/22 11:33:04;;;;;;;39.07;35.10;;;26.20;72.90;;;;;;5054907;28;20450;-57
2023/05/22 11:35:31;;;;;;;37.23;33.23;;;26.50;70.50;;;;;;5054931;28;20476;-57
2023/05/22 11:38:03;;;;;;;44.00;37.57;;;26.80;70.80;;;;;;5054743;28;20503;-57
2023/05/22 11:40:31;;;;;;;41.13;36.73;;;27.00;68.20;;;;;;5054466;28;20441;-57
2023/05/22 11:42:57;;;;;;;40.23;35.70;;;27.40;67.80;;;;;;5054224;28;20897;-57
2023/05/22 11:45:24;;;;;;;40.07;35.67;;;27.30;65.90;;;;;;5054582;28;20466;-57
2023/05/22 11:47:51;;;;;;;38.87;34.70;;;27.10;66.60;;;;;;5054597;28;20452;-57
2023/05/22 11:50:18;;;;;;;44.33;37.80;;;27.30;66.90;;;;;;5053227;28;20958;-57
2023/05/22 11:52:45;;;;;;;43.20;37.50;;;27.50;64.90;;;;;;5054618;28;20452;-57
2023/05/22 11:55:13;;;;;;;43.40;38.07;;;27.70;66.50;;;;;;5054310;28;20512;-57
2023/05/22 11:57:40;;;;;;;40.93;36.70;;;28.30;62.00;;;;;;5054351;28;20445;-57
2023/05/22 12:00:09;;;;;;;43.30;37.87;;;28.50;60.30;;;;;;5054899;28;20460;-57
2023/05/22 12:02:36;;;;;;;44.97;37.90;;;28.80;59.20;;;;;;5054908;28;21101;-57
2023/05/22 12:05:03;;;;;;;42.20;36.73;;;29.30;58.40;;;;;;5056655;28;20474;-57
2023/05/22 12:07:30;;;;;;;44.93;38.60;;;29.60;58.20;;;;;;5055672;28;20485;-57
2023/05/22 12:09:57;;;;;;;42.33;37.80;;;29.80;56.10;;;;;;5053924;28;20465;-57
2023/05/22 12:12:31;;;;;;;49.43;40.63;;;30.20;55.20;;;;;;5131810;27;20519;-57
2023/05/22 12:14:58;;;;;;;45.73;38.87;;;30.60;52.90;;;;;;5131618;28;20478;-57
2023/05/22 12:17:25;;;;;;;44.83;37.80;;;30.70;53.20;;;;;;5132125;28;20442;-57
2023/05/22 12:19:53;;;;;;;44.40;39.40;;;30.70;52.30;;;;;;5131566;28;20499;-57
2023/05/22 12:22:21;;;;;;;42.43;37.97;;;30.50;52.10;;;;;;5131505;28;20450;-57
2023/05/22 12:24:52;;;;;;;44.47;39.30;;;30.70;53.10;;;;;;5131085;28;21042;-57
2023/05/22 12:27:18;;;;;;;45.90;37.97;;;31.30;51.30;;;;;;5131492;28;20441;-57
2023/05/22 12:29:46;;;;;;;44.20;39.60;;;31.70;50.20;;;;;;5131390;28;20444;-57
2023/05/22 12:32:13;;;;;;;43.33;38.90;;;32.50;50.70;;;;;;5131319;28;20473;-57